Time;durP1;ratioP1;P1;durP2;ratioP2;P2;SDS_P1;SDS_P2;PMS_P1;PMS_P2;Temp;Humidity;BMP_temperature;BMP_pressure;BME280_temperature;BME280_humidity;BME280_pressure;Samples;Min_cycle;Max_cycle;Signal;HPM_P1;HPM_P2
2021/08/17 04:40:32;;;;;;;22.63;13.77;;;21.00;97.10;;;;;;5046337;27;20429;-70
2021/08/17 04:42:58;;;;;;;15.35;11.77;;;21.00;97.40;;;;;;5047580;27;20021;-70
2021/08/17 04:45:25;;;;;;;15.30;11.05;;;21.20;97.70;;;;;;5046384;28;20021;-70
2021/08/17 04:47:51;;;;;;;22.73;11.85;;;21.40;97.40;;;;;;5046239;27;20403;-69
2021/08/17 04:50:19;;;;;;;15.05;11.10;;;21.60;97.00;;;;;;5044074;28;20032;-70
2021/08/17 04:52:46;;;;;;;15.07;10.90;;;21.80;96.70;;;;;;5046048;28;20025;-70
2021/08/17 04:55:12;;;;;;;13.85;10.43;;;21.90;96.50;;;;;;5043121;28;20100;-69
2021/08/17 04:57:51;;;;;;;16.75;9.85;;;22.10;96.10;;;;;;5046333;28;20028;-70
2021/08/17 05:00:18;;;;;;;13.75;10.15;;;22.30;96.00;;;;;;5043703;28;20371;-72
2021/08/17 05:02:44;;;;;;;15.15;9.75;;;22.50;95.80;;;;;;5044769;27;20028;-70
2021/08/17 05:05:10;;;;;;;12.18;9.40;;;22.70;95.30;;;;;;5045675;28;20025;-71
2021/08/17 05:07:37;;;;;;;18.73;10.80;;;22.80;94.90;;;;;;5043227;28;20021;-70
2021/08/17 05:10:05;;;;;;;18.30;10.68;;;23.00;94.30;;;;;;5046429;28;20052;-69
2021/08/17 05:12:31;;;;;;;15.07;10.73;;;23.10;93.70;;;;;;5042716;28;20076;-70
2021/08/17 05:14:57;;;;;;;12.85;9.50;;;23.30;93.10;;;;;;5045147;27;20074;-70
2021/08/17 05:17:23;;;;;;;16.90;10.35;;;23.40;93.10;;;;;;5049416;27;20033;-70
2021/08/17 05:19:48;;;;;;;15.00;10.27;;;23.50;92.30;;;;;;5057865;28;20033;-72
2021/08/17 05:22:14;;;;;;;20.52;9.82;;;23.70;91.80;;;;;;5047039;28;20046;-72
2021/08/17 05:24:39;;;;;;;12.85;8.88;;;23.80;91.50;;;;;;5046754;28;20037;-71
2021/08/17 05:27:05;;;;;;;16.95;9.48;;;23.90;91.30;;;;;;5046602;28;20033;-72
2021/08/17 05:29:31;;;;;;;13.23;9.77;;;24.00;90.90;;;;;;5046039;28;20380;-71
2021/08/17 05:31:56;;;;;;;14.88;10.20;;;24.10;90.50;;;;;;5046250;28;20025;-72
2021/08/17 05:34:22;;;;;;;13.20;9.70;;;24.20;90.20;;;;;;5046388;28;20030;-71
2021/08/17 05:36:47;;;;;;;12.25;9.70;;;24.30;89.40;;;;;;5046472;28;20029;-71
2021/08/17 05:39:13;;;;;;;12.77;9.20;;;24.40;88.80;;;;;;5045866;28;20120;-71
2021/08/17 05:41:39;;;;;;;15.27;10.02;;;24.40;88.20;;;;;;5032966;28;20052;-71
2021/08/17 05:44:04;;;;;;;14.13;8.80;;;24.50;87.30;;;;;;5026712;28;20079;-73
2021/08/17 05:46:30;;;;;;;14.98;9.68;;;24.60;87.40;;;;;;5042131;28;20078;-70
2021/08/17 05:48:56;;;;;;;14.93;9.95;;;24.70;85.60;;;;;;5045592;28;20040;-71
2021/08/17 05:51:21;;;;;;;14.75;10.82;;;24.80;85.40;;;;;;5035270;27;20039;-72
2021/08/17 05:53:47;;;;;;;22.13;13.73;;;24.80;83.80;;;;;;5031684;28;20096;-72
2021/08/17 05:56:13;;;;;;;17.30;9.70;;;25.00;82.40;;;;;;5030768;28;20056;-72
2021/08/17 05:58:38;;;;;;;13.02;8.20;;;25.10;80.60;;;;;;5032668;28;20037;-72
2021/08/17 06:01:04;;;;;;;14.60;8.27;;;25.10;79.60;;;;;;5031732;28;20043;-74
2021/08/17 06:03:29;;;;;;;12.05;8.32;;;25.20;77.10;;;;;;5026083;28;20022;-74
2021/08/17 06:05:59;;;;;;;12.90;7.68;;;25.30;76.10;;;;;;5027555;28;20102;-74
2021/08/17 06:08:25;;;;;;;15.80;7.60;;;25.40;75.60;;;;;;5031434;28;20026;-72
2021/08/17 06:10:50;;;;;;;13.35;7.97;;;25.40;74.80;;;;;;5031925;28;20116;-72
2021/08/17 06:13:16;;;;;;;11.00;7.82;;;25.50;74.30;;;;;;5031249;28;20030;-71
2021/08/17 06:15:41;;;;;;;9.00;7.13;;;25.60;73.60;;;;;;5031625;28;20029;-71
2021/08/17 06:18:08;;;;;;;12.68;7.03;;;25.70;72.90;;;;;;5031863;28;20022;-72
2021/08/17 06:20:35;;;;;;;12.35;6.80;;;25.80;71.90;;;;;;5031857;28;20045;-73
2021/08/17 06:23:01;;;;;;;10.32;7.15;;;25.80;71.20;;;;;;5018712;28;20041;-72
2021/08/17 06:25:28;;;;;;;13.40;6.38;;;25.90;70.10;;;;;;5011655;28;20022;-72
2021/08/17 06:27:54;;;;;;;11.48;7.32;;;25.90;69.30;;;;;;5017477;28;20022;-71
2021/08/17 06:30:19;;;;;;;11.60;6.93;;;26.00;69.20;;;;;;5030241;28;20038;-73
2021/08/17 06:32:45;;;;;;;13.02;7.22;;;26.10;68.60;;;;;;5034512;27;20025;-74
2021/08/17 06:35:11;;;;;;;14.77;7.50;;;26.30;67.50;;;;;;5078574;27;20107;-73
2021/08/17 06:37:36;;;;;;;9.70;6.60;;;26.30;67.80;;;;;;5031863;28;20029;-74
2021/08/17 06:40:03;;;;;;;8.80;5.70;;;26.40;67.50;;;;;;5027093;28;20125;-73
2021/08/17 06:42:29;;;;;;;13.57;6.38;;;26.40;67.10;;;;;;5011934;28;20026;-74
2021/08/17 06:44:54;;;;;;;7.93;5.93;;;26.50;65.30;;;;;;5018705;28;20018;-75
2021/08/17 06:47:20;;;;;;;11.77;5.63;;;26.60;64.60;;;;;;5032047;28;20029;-75
2021/08/17 06:49:45;;;;;;;11.68;5.20;;;26.70;64.40;;;;;;5017721;28;20072;-75
2021/08/17 06:52:11;;;;;;;8.27;5.53;;;26.70;64.20;;;;;;5012510;28;20513;-74
2021/08/17 06:54:37;;;;;;;9.25;5.82;;;26.80;63.80;;;;;;5013501;28;20022;-76
2021/08/17 06:57:03;;;;;;;7.85;6.00;;;26.90;63.50;;;;;;5013098;28;20105;-73
2021/08/17 06:59:28;;;;;;;7.15;5.68;;;27.00;63.70;;;;;;5015494;28;20414;-72
2021/08/17 07:01:54;;;;;;;9.23;5.60;;;27.00;64.00;;;;;;5030489;28;20030;-73
2021/08/17 07:04:20;;;;;;;8.85;5.57;;;27.00;63.70;;;;;;5031741;28;20050;-72
2021/08/17 07:06:45;;;;;;;10.68;5.95;;;27.10;63.40;;;;;;5031780;28;20053;-73
2021/08/17 07:09:11;;;;;;;11.10;5.63;;;27.20;63.00;;;;;;5031685;28;20085;-72
2021/08/17 07:11:37;;;;;;;10.15;5.80;;;27.20;63.50;;;;;;5031681;28;20117;-77
2021/08/17 07:14:02;;;;;;;10.00;5.47;;;27.30;62.80;;;;;;5031885;28;20029;-75
2021/08/17 07:16:28;;;;;;;8.13;5.30;;;27.40;62.10;;;;;;5032208;28;20359;-75
2021/08/17 07:18:54;;;;;;;7.70;5.57;;;27.50;61.40;;;;;;5031454;28;20021;-77
2021/08/17 07:21:19;;;;;;;7.70;5.18;;;27.50;60.40;;;;;;5031602;28;20021;-76
2021/08/17 07:23:45;;;;;;;6.85;5.45;;;27.50;60.70;;;;;;5031467;28;20074;-73
2021/08/17 07:26:11;;;;;;;8.38;5.30;;;27.60;60.00;;;;;;5031596;28;20025;-71
2021/08/17 07:28:37;;;;;;;8.43;5.50;;;27.60;59.10;;;;;;5031595;28;20034;-79
2021/08/17 07:31:03;;;;;;;12.45;5.30;;;27.70;58.70;;;;;;5031595;28;20035;-78
2021/08/17 07:33:28;;;;;;;6.00;4.60;;;27.80;58.00;;;;;;5031683;28;20082;-77
2021/08/17 07:35:54;;;;;;;7.00;4.70;;;27.80;57.80;;;;;;5031707;28;20021;-80
2021/08/17 07:38:19;;;;;;;11.23;5.07;;;27.90;57.00;;;;;;5031487;28;20054;-78
2021/08/17 07:40:45;;;;;;;8.82;5.20;;;27.90;57.30;;;;;;5031450;28;20098;-80
2021/08/17 07:43:11;;;;;;;7.05;5.00;;;28.00;57.40;;;;;;5031915;28;20081;-79
2021/08/17 07:45:37;;;;;;;12.93;5.72;;;28.00;58.20;;;;;;5029965;28;20504;-77
2021/08/17 07:48:03;;;;;;;8.13;6.18;;;28.00;58.30;;;;;;5031234;28;20030;-80
2021/08/17 07:50:28;;;;;;;14.27;5.70;;;28.20;58.50;;;;;;5031487;28;20150;-79
2021/08/17 07:52:54;;;;;;;8.20;5.25;;;28.20;58.20;;;;;;5029892;28;20033;-80
2021/08/17 07:55:20;;;;;;;7.95;5.97;;;28.20;57.50;;;;;;5030929;28;20163;-81
2021/08/17 07:57:46;;;;;;;9.40;6.20;;;28.30;57.40;;;;;;5031011;28;20412;-77
2021/08/17 08:00:14;;;;;;;7.28;5.13;;;28.50;55.90;;;;;;5031299;28;20520;-79
2021/08/17 08:02:40;;;;;;;10.73;6.22;;;28.50;57.20;;;;;;5031208;28;20029;-76
2021/08/17 08:05:07;;;;;;;9.50;5.88;;;28.50;57.20;;;;;;5031343;28;20021;-80
2021/08/17 08:07:33;;;;;;;8.30;5.20;;;28.50;57.50;;;;;;5031078;28;20040;-78
2021/08/17 08:09:58;;;;;;;10.45;4.90;;;28.50;58.10;;;;;;5031030;28;20051;-80
2021/08/17 08:12:24;;;;;;;11.73;6.15;;;28.60;58.10;;;;;;5030999;28;20089;-80
2021/08/17 08:14:50;;;;;;;7.90;5.53;;;28.60;57.70;;;;;;5030617;28;20026;-79
2021/08/17 08:17:16;;;;;;;8.85;5.85;;;28.70;57.50;;;;;;5030695;28;20018;-80
2021/08/17 08:19:41;;;;;;;8.43;5.60;;;28.70;57.30;;;;;;5030742;28;20353;-81
2021/08/17 08:22:08;;;;;;;9.88;5.72;;;28.70;57.20;;;;;;5030943;28;20025;-79
2021/08/17 08:24:35;;;;;;;10.82;5.60;;;28.80;57.10;;;;;;5030685;28;20491;-79
2021/08/17 08:27:01;;;;;;;6.65;5.13;;;28.80;57.20;;;;;;5030729;28;20033;-78
2021/08/17 08:29:26;;;;;;;7.88;5.13;;;28.80;57.40;;;;;;5030666;28;20077;-79
2021/08/17 08:31:52;;;;;;;7.32;5.43;;;28.80;57.80;;;;;;5030597;28;20040;-81
2021/08/17 08:34:18;;;;;;;9.85;6.10;;;28.90;57.70;;;;;;5030665;28;20475;-76
2021/08/17 08:36:44;;;;;;;7.30;5.53;;;28.90;57.70;;;;;;5029083;28;20058;-83
2021/08/17 08:39:10;;;;;;;11.18;5.97;;;28.90;56.90;;;;;;5030204;28;20404;-84
2021/08/17 08:41:38;;;;;;;10.10;5.43;;;29.00;57.00;;;;;;5029266;28;20055;-70
2021/08/17 08:44:03;;;;;;;8.98;5.97;;;29.00;56.80;;;;;;5030529;28;20044;-77
2021/08/17 08:46:30;;;;;;;9.35;5.88;;;29.10;56.10;;;;;;5030583;28;20345;-82
2021/08/17 08:48:56;;;;;;;9.75;5.38;;;29.10;56.10;;;;;;5030366;28;20490;-81
2021/08/17 08:51:23;;;;;;;8.18;5.78;;;29.20;56.50;;;;;;5030766;28;20036;-77
2021/08/17 08:53:48;;;;;;;27.00;6.43;;;29.20;56.80;;;;;;5030290;28;20380;-81
2021/08/17 08:56:15;;;;;;;7.18;5.80;;;29.20;56.90;;;;;;5030425;28;20022;-81
2021/08/17 08:58:42;;;;;;;14.13;6.80;;;29.30;57.00;;;;;;5030439;28;20026;-80
2021/08/17 09:01:12;;;;;;;11.27;6.30;;;29.30;57.00;;;;;;5030548;28;20018;-77
2021/08/17 09:03:44;;;;;;;15.23;6.75;;;29.30;57.10;;;;;;5030288;28;20022;-79
2021/08/17 09:06:29;;;;;;;8.68;6.70;;;29.30;57.00;;;;;;5030645;28;20044;-80
2021/08/17 09:09:16;;;;;;;11.38;6.45;;;29.30;57.00;;;;;;5030376;28;20375;-81
2021/08/17 09:11:53;;;;;;;13.48;6.35;;;29.40;56.90;;;;;;5030393;28;20032;-79
2021/08/17 09:14:35;;;;;;;9.95;6.25;;;29.50;56.30;;;;;;5029558;28;20038;-79
2021/08/17 09:17:05;;;;;;;10.95;7.15;;;29.60;56.50;;;;;;5030351;28;20026;-80
2021/08/17 09:19:37;;;;;;;11.55;6.93;;;29.70;56.70;;;;;;5010985;28;20407;-82
2021/08/17 09:22:21;;;;;;;7.05;6.35;;;29.60;56.80;;;;;;5010468;28;20375;-79
2021/08/17 09:24:52;;;;;;;13.40;7.18;;;29.70;56.60;;;;;;5021033;28;20105;-82
2021/08/17 09:27:24;;;;;;;8.52;6.57;;;29.70;56.90;;;;;;5033698;28;20427;-77
2021/08/17 09:30:01;;;;;;;13.38;7.18;;;29.70;57.40;;;;;;5033847;28;20021;-74
2021/08/17 09:32:27;;;;;;;9.27;6.50;;;29.80;57.10;;;;;;5033200;28;20095;-76
2021/08/17 09:35:03;;;;;;;20.17;6.93;;;29.80;57.40;;;;;;5031968;28;20034;-71
2021/08/17 09:37:33;;;;;;;8.43;5.80;;;29.90;57.00;;;;;;5032904;28;20026;-75
2021/08/17 17:35:09;;;;;;;14.05;9.10;;;25.90;67.10;;;;;;5069975;28;20387;-73
2021/08/17 17:37:35;;;;;;;19.80;10.30;;;25.30;69.30;;;;;;5070777;28;20028;-73
2021/08/17 17:40:05;;;;;;;17.15;10.13;;;25.20;70.50;;;;;;5070636;28;20100;-73
2021/08/17 17:42:32;;;;;;;18.05;10.65;;;25.20;71.50;;;;;;5056436;28;20017;-73
2021/08/17 17:44:58;;;;;;;15.98;9.65;;;25.30;72.30;;;;;;5050393;28;20029;-73
2021/08/17 17:47:24;;;;;;;19.05;10.52;;;25.20;72.40;;;;;;5051411;28;20035;-73
2021/08/17 17:49:49;;;;;;;18.60;10.32;;;25.30;73.00;;;;;;5050530;28;20052;-73
2021/08/17 17:52:15;;;;;;;19.30;10.95;;;25.30;73.10;;;;;;5049978;28;20021;-73
2021/08/17 17:54:41;;;;;;;19.63;11.27;;;25.30;73.20;;;;;;5061250;28;20025;-73
2021/08/17 17:57:06;;;;;;;19.25;10.60;;;25.40;73.30;;;;;;5050235;28;20025;-73
2021/08/17 17:59:32;;;;;;;18.77;10.07;;;25.40;73.50;;;;;;5050012;28;20022;-73
2021/08/17 18:01:58;;;;;;;19.95;11.68;;;25.40;73.60;;;;;;5050124;28;20037;-73
2021/08/17 18:04:24;;;;;;;25.90;11.85;;;25.40;73.50;;;;;;5066933;28;20032;-73
2021/08/17 18:06:50;;;;;;;18.08;11.52;;;25.40;73.30;;;;;;5067328;28;20077;-73
2021/08/17 18:09:16;;;;;;;24.02;12.40;;;25.40;73.40;;;;;;5051169;28;20033;-74
2021/08/17 18:11:41;;;;;;;20.27;12.40;;;25.40;73.40;;;;;;5059851;28;20025;-74
2021/08/17 18:14:07;;;;;;;21.70;13.25;;;25.50;73.30;;;;;;5049280;28;20040;-73
2021/08/17 18:16:33;;;;;;;24.65;12.98;;;25.50;73.40;;;;;;5065082;28;20115;-73
2021/08/17 18:18:58;;;;;;;25.27;13.25;;;25.40;73.10;;;;;;5055458;28;20095;-73
2021/08/17 18:21:24;;;;;;;24.25;14.10;;;25.40;73.40;;;;;;5049749;28;20097;-73
2021/08/17 18:24:50;;;;;;;22.77;13.90;;;25.40;72.50;;;;;;5070275;28;20392;-71
2021/08/17 18:27:16;;;;;;;21.95;14.65;;;25.40;73.50;;;;;;5054966;28;20517;-71
2021/08/17 18:29:48;;;;;;;28.35;13.85;;;25.40;73.70;;;;;;5050628;28;20045;-71
2021/08/17 18:32:16;;;;;;;26.85;16.50;;;25.40;74.00;;;;;;5055841;28;20024;-71
2021/08/17 18:34:44;;;;;;;26.13;16.20;;;25.30;74.20;;;;;;5065846;28;20033;-71
2021/08/17 18:37:10;;;;;;;25.73;15.68;;;25.30;74.20;;;;;;5058579;28;20033;-71
2021/08/17 18:39:42;;;;;;;27.23;15.07;;;25.30;74.30;;;;;;5050099;28;20025;-71
2021/08/17 18:42:09;;;;;;;24.45;14.32;;;25.30;74.60;;;;;;5050486;28;20075;-70
2021/08/17 18:44:34;;;;;;;25.60;15.60;;;25.30;74.50;;;;;;5051885;28;20033;-70
2021/08/17 18:47:00;;;;;;;23.98;14.80;;;25.20;74.30;;;;;;5050549;28;20459;-70
2021/08/17 18:49:26;;;;;;;25.58;15.48;;;25.20;74.30;;;;;;5050894;28;20087;-70
2021/08/17 18:51:53;;;;;;;24.08;14.35;;;25.20;74.60;;;;;;5050478;28;20021;-70
2021/08/17 18:54:19;;;;;;;27.42;15.63;;;25.20;74.60;;;;;;5050262;28;20104;-70
2021/08/17 18:56:45;;;;;;;27.95;15.95;;;25.10;75.10;;;;;;5050274;28;20030;-70
2021/08/17 18:59:11;;;;;;;26.25;15.18;;;25.10;75.40;;;;;;5050328;28;20033;-70
2021/08/17 19:01:37;;;;;;;27.17;14.93;;;25.10;75.50;;;;;;5050136;28;20036;-70
2021/08/17 19:04:02;;;;;;;33.03;16.35;;;25.00;75.80;;;;;;5050137;28;20030;-70
2021/08/17 19:06:29;;;;;;;40.65;25.15;;;25.00;75.90;;;;;;5066236;28;20017;-70
2021/08/17 19:08:54;;;;;;;28.00;17.90;;;25.00;75.90;;;;;;5068080;28;20493;-70
2021/08/17 19:11:20;;;;;;;29.48;15.75;;;24.90;76.20;;;;;;5052669;28;20045;-70
2021/08/17 19:13:46;;;;;;;24.65;15.13;;;24.90;76.20;;;;;;5049551;28;20029;-70
2021/08/17 19:16:12;;;;;;;27.50;15.30;;;24.80;76.30;;;;;;5048879;28;20061;-70
2021/08/17 19:18:38;;;;;;;25.10;14.27;;;24.80;76.20;;;;;;5049254;28;20075;-70
2021/08/17 19:21:03;;;;;;;21.02;13.75;;;24.80;76.60;;;;;;5049348;28;20108;-70
2021/08/17 19:23:29;;;;;;;24.45;13.88;;;24.80;76.80;;;;;;5048706;28;20136;-70
2021/08/17 19:25:56;;;;;;;27.42;13.95;;;24.70;76.90;;;;;;5049060;28;20063;-70
2021/08/17 19:28:21;;;;;;;24.38;14.60;;;24.70;76.80;;;;;;5049271;28;20061;-70
2021/08/17 19:30:47;;;;;;;22.67;14.88;;;24.60;76.80;;;;;;5049104;28;20077;-70
2021/08/17 19:33:13;;;;;;;26.08;15.80;;;24.60;77.10;;;;;;5049215;28;20043;-70
2021/08/17 19:35:39;;;;;;;27.02;16.10;;;24.60;77.10;;;;;;5038927;28;20021;-70
2021/08/17 19:38:06;;;;;;;23.75;15.77;;;24.60;77.00;;;;;;5036854;28;20379;-70
2021/08/17 19:40:32;;;;;;;26.80;15.68;;;24.60;77.10;;;;;;5035803;28;20028;-70
2021/08/17 19:42:58;;;;;;;31.02;15.88;;;24.50;77.20;;;;;;5048271;28;20036;-70
2021/08/17 19:45:24;;;;;;;33.55;17.10;;;24.50;77.50;;;;;;5055756;28;20025;-70
2021/08/17 19:47:50;;;;;;;26.58;16.17;;;24.40;77.80;;;;;;5052561;28;20025;-70
2021/08/17 19:50:15;;;;;;;29.17;17.13;;;24.40;77.90;;;;;;5036013;28;20384;-70
2021/08/17 19:52:41;;;;;;;27.25;17.30;;;24.30;78.30;;;;;;5035929;28;20060;-70
2021/08/17 19:55:08;;;;;;;29.40;17.33;;;24.30;78.50;;;;;;5036785;28;20033;-70
2021/08/17 19:57:34;;;;;;;30.23;17.75;;;24.30;78.90;;;;;;5015961;28;20025;-70
2021/08/17 20:00:00;;;;;;;28.20;19.13;;;24.20;79.40;;;;;;5024913;28;20024;-70
2021/08/17 20:02:25;;;;;;;37.33;20.23;;;24.20;79.40;;;;;;5035722;28;20100;-70
2021/08/17 20:04:51;;;;;;;41.50;25.63;;;24.20;79.40;;;;;;5035823;28;20033;-70
2021/08/17 20:07:17;;;;;;;44.78;26.83;;;24.20;80.00;;;;;;5035794;28;20025;-70
2021/08/17 20:09:42;;;;;;;38.47;25.58;;;24.20;79.50;;;;;;5039457;28;20100;-70
2021/08/17 20:12:08;;;;;;;42.80;26.42;;;24.20;79.60;;;;;;5055772;28;20033;-70
2021/08/17 20:14:34;;;;;;;52.33;29.02;;;24.10;79.70;;;;;;5055570;28;20029;-70
2021/08/17 20:17:01;;;;;;;48.83;30.13;;;24.10;79.80;;;;;;5055626;28;20021;-70
2021/08/17 20:19:27;;;;;;;54.22;31.25;;;24.00;80.00;;;;;;5055714;28;20031;-70
2021/08/17 20:21:52;;;;;;;55.20;31.17;;;24.00;80.20;;;;;;5044943;28;20038;-70
2021/08/17 20:24:18;;;;;;;50.28;32.13;;;24.00;80.20;;;;;;5015782;28;20058;-70
2021/08/17 20:26:47;;;;;;;60.03;34.85;;;24.00;80.50;;;;;;5015642;28;20029;-70
2021/08/17 20:29:14;;;;;;;61.00;34.75;;;24.00;80.60;;;;;;5015716;28;20018;-70
2021/08/17 20:31:40;;;;;;;59.15;35.33;;;24.00;80.80;;;;;;5029393;28;20025;-70
2021/08/17 20:34:06;;;;;;;56.42;34.65;;;24.00;80.80;;;;;;5041509;28;20502;-70
2021/08/17 20:36:32;;;;;;;61.20;34.30;;;23.90;81.00;;;;;;5035401;28;20032;-70
2021/08/17 20:38:57;;;;;;;54.67;33.10;;;23.90;81.30;;;;;;5050290;28;20017;-70
2021/08/17 20:41:23;;;;;;;62.67;35.83;;;23.90;81.50;;;;;;5055243;28;20060;-70
2021/08/17 20:43:49;;;;;;;64.13;35.95;;;23.90;81.70;;;;;;5040774;28;20033;-70
2021/08/17 20:46:15;;;;;;;62.38;37.42;;;23.90;81.80;;;;;;5048940;28;20422;-70
2021/08/17 20:48:41;;;;;;;62.20;38.15;;;23.90;82.00;;;;;;5043737;28;20018;-70
2021/08/17 20:51:08;;;;;;;63.03;38.17;;;23.90;82.00;;;;;;5034884;28;20052;-70
2021/08/17 20:53:34;;;;;;;60.10;37.10;;;23.90;82.00;;;;;;5035242;28;20066;-70
2021/08/17 20:56:00;;;;;;;61.95;36.85;;;23.80;82.00;;;;;;5035132;28;20026;-70
2021/08/17 20:58:26;;;;;;;61.33;37.30;;;23.80;82.10;;;;;;5042135;28;20578;-70
2021/08/17 21:00:53;;;;;;;56.17;35.00;;;23.90;82.40;;;;;;5055089;28;20025;-70
2021/08/17 21:03:19;;;;;;;51.67;31.70;;;23.80;82.40;;;;;;5054843;28;20025;-70
2021/08/17 21:05:45;;;;;;;46.00;29.05;;;23.80;82.20;;;;;;5054893;28;20017;-70
2021/08/17 21:08:10;;;;;;;40.92;24.85;;;23.90;82.10;;;;;;5054689;28;20062;-70
2021/08/17 21:10:36;;;;;;;37.15;23.40;;;23.80;81.60;;;;;;5055072;28;20092;-70
2021/08/17 21:13:02;;;;;;;33.47;21.48;;;23.90;81.30;;;;;;5051856;28;20084;-70
2021/08/17 21:15:28;;;;;;;34.25;21.02;;;23.90;81.20;;;;;;5045222;28;20067;-70
2021/08/17 21:17:54;;;;;;;28.75;19.67;;;23.90;81.10;;;;;;5054775;28;20025;-70
2021/08/17 21:20:20;;;;;;;30.92;18.13;;;23.90;81.00;;;;;;5054346;28;20468;-70
2021/08/17 21:22:46;;;;;;;30.30;18.83;;;23.90;81.00;;;;;;5054075;28;20041;-70
2021/08/17 21:25:15;;;;;;;26.25;17.92;;;23.90;80.90;;;;;;5054821;28;20040;-70
2021/08/17 21:27:41;;;;;;;29.15;17.63;;;23.90;81.00;;;;;;5054325;28;20382;-70
2021/08/17 21:30:09;;;;;;;29.60;17.60;;;23.90;81.20;;;;;;5048544;28;20107;-70
2021/08/17 21:32:35;;;;;;;24.95;17.08;;;23.90;81.50;;;;;;5034136;28;20076;-70
2021/08/17 21:35:03;;;;;;;26.30;18.10;;;23.80;81.60;;;;;;5034274;28;20057;-70
2021/08/17 21:37:29;;;;;;;29.58;18.50;;;23.90;82.00;;;;;;5034189;28;20029;-70
2021/08/17 21:39:55;;;;;;;26.30;17.52;;;23.80;82.40;;;;;;5033102;28;20391;-70
2021/08/17 21:42:21;;;;;;;29.92;17.83;;;23.90;82.50;;;;;;5039903;28;20025;-70
2021/08/17 21:44:47;;;;;;;25.38;17.98;;;24.00;82.50;;;;;;5054114;28;20055;-70
2021/08/17 21:47:13;;;;;;;29.58;18.73;;;24.00;82.60;;;;;;5054229;28;20021;-70
2021/08/17 21:49:39;;;;;;;34.88;20.13;;;24.00;82.40;;;;;;5054269;28;20029;-70
2021/08/17 21:52:06;;;;;;;28.90;19.55;;;24.10;82.60;;;;;;5054238;28;20025;-70
2021/08/17 21:54:32;;;;;;;32.95;21.98;;;24.10;82.80;;;;;;5054426;28;20337;-70
2021/08/17 21:57:02;;;;;;;32.47;22.13;;;24.10;82.90;;;;;;5052858;28;20415;-70
2021/08/17 21:59:28;;;;;;;36.72;23.05;;;24.20;83.20;;;;;;5033628;28;20116;-70
2021/08/17 22:01:54;;;;;;;32.90;22.55;;;24.10;83.10;;;;;;5033793;28;20025;-70
2021/08/17 22:04:20;;;;;;;34.78;22.50;;;24.10;82.90;;;;;;5033978;28;20134;-70
2021/08/17 22:06:46;;;;;;;31.38;21.13;;;24.10;82.90;;;;;;5038776;28;20036;-70
2021/08/17 22:09:12;;;;;;;31.13;19.73;;;24.10;82.80;;;;;;5054024;28;20470;-70
2021/08/17 22:11:39;;;;;;;25.98;18.70;;;24.10;82.70;;;;;;5053599;28;20041;-70
2021/08/17 22:14:04;;;;;;;30.08;17.83;;;24.10;82.50;;;;;;5053584;28;20028;-71
2021/08/17 22:16:30;;;;;;;26.92;17.90;;;24.20;82.40;;;;;;5054061;28;20029;-71
2021/08/17 22:18:56;;;;;;;27.33;18.02;;;24.20;81.00;;;;;;5034748;28;20029;-76
2021/08/17 22:21:22;;;;;;;31.27;20.10;;;24.30;79.60;;;;;;5033845;28;20105;-72
2021/08/17 22:23:48;;;;;;;29.80;18.60;;;24.40;78.60;;;;;;5033245;28;20050;-72
2021/08/17 22:26:14;;;;;;;36.65;21.70;;;24.40;78.40;;;;;;5033615;28;20022;-71
2021/08/17 22:28:42;;;;;;;31.65;21.23;;;24.30;78.30;;;;;;5033475;28;20091;-71
2021/08/17 22:31:09;;;;;;;35.15;20.33;;;24.30;78.70;;;;;;5033878;28;20021;-71
2021/08/17 22:33:36;;;;;;;31.40;22.08;;;24.20;79.10;;;;;;5047602;28;20064;-71
2021/08/17 22:36:02;;;;;;;34.17;21.35;;;24.10;79.50;;;;;;5053315;28;20028;-71
2021/08/17 22:38:28;;;;;;;35.03;20.85;;;24.00;79.90;;;;;;5054026;28;20463;-71
2021/08/17 22:40:53;;;;;;;30.33;20.10;;;24.00;80.30;;;;;;5053451;28;20029;-71
2021/08/17 22:43:19;;;;;;;34.88;20.38;;;23.90;80.70;;;;;;5053223;28;20029;-71
2021/08/17 22:45:44;;;;;;;31.70;19.90;;;23.80;81.30;;;;;;5053652;28;20021;-71
2021/08/17 22:48:10;;;;;;;34.45;20.45;;;23.80;81.60;;;;;;5053811;28;20475;-71
2021/08/17 22:50:36;;;;;;;33.25;19.85;;;23.70;82.00;;;;;;5053487;28;20514;-71
2021/08/17 22:53:02;;;;;;;32.20;20.17;;;23.70;82.30;;;;;;5052059;28;20037;-72
2021/08/17 22:55:27;;;;;;;29.40;19.88;;;23.70;82.20;;;;;;5053274;28;20033;-71
2021/08/17 22:57:53;;;;;;;33.20;21.02;;;23.60;82.00;;;;;;5053392;28;20025;-71
2021/08/17 23:00:19;;;;;;;30.67;19.33;;;23.60;82.50;;;;;;5053221;28;20059;-71
2021/08/17 23:02:44;;;;;;;33.75;19.70;;;23.50;82.80;;;;;;5053179;28;20064;-71
2021/08/17 23:05:10;;;;;;;32.15;21.05;;;23.50;83.00;;;;;;5053100;28;20025;-71
2021/08/17 23:07:36;;;;;;;28.80;20.58;;;23.50;83.20;;;;;;5044892;28;20014;-71
2021/08/17 23:10:03;;;;;;;31.95;21.20;;;23.40;83.30;;;;;;5034385;28;20155;-75
2021/08/17 23:12:29;;;;;;;43.20;26.05;;;23.40;83.70;;;;;;5037334;28;20029;-73
2021/08/17 23:14:54;;;;;;;38.15;23.83;;;23.50;82.80;;;;;;5036970;28;20025;-70
2021/08/17 23:17:20;;;;;;;35.85;23.63;;;23.40;83.00;;;;;;5036788;28;20384;-71
2021/08/17 23:19:46;;;;;;;33.25;22.20;;;23.40;83.60;;;;;;5036908;28;20059;-71
2021/08/17 23:22:13;;;;;;;35.97;23.05;;;23.30;84.10;;;;;;5034321;28;20536;-71
2021/08/17 23:24:40;;;;;;;38.55;25.58;;;23.30;84.40;;;;;;5016547;28;20049;-71
2021/08/17 23:27:06;;;;;;;35.38;23.25;;;23.30;84.50;;;;;;5016991;28;20099;-72
2021/08/17 23:29:33;;;;;;;38.17;25.52;;;23.30;84.70;;;;;;5016958;28;20498;-71
2021/08/17 23:31:59;;;;;;;38.75;26.52;;;23.30;84.80;;;;;;5017156;28;20022;-71
2021/08/17 23:34:26;;;;;;;42.85;24.65;;;23.30;85.00;;;;;;5017395;28;20479;-70
2021/08/17 23:36:52;;;;;;;50.63;26.95;;;23.30;85.20;;;;;;5017199;28;20032;-70
2021/08/17 23:39:18;;;;;;;43.03;27.85;;;23.20;85.20;;;;;;5052528;28;20037;-70
2021/08/17 23:41:44;;;;;;;54.70;31.27;;;23.20;84.90;;;;;;5056434;28;20409;-71
2021/08/17 23:44:10;;;;;;;48.75;30.52;;;23.20;84.60;;;;;;5056728;28;20029;-71
2021/08/17 23:46:36;;;;;;;50.53;30.27;;;23.20;84.70;;;;;;5056206;28;20088;-71
2021/08/17 23:49:03;;;;;;;51.83;31.48;;;23.20;85.00;;;;;;5056761;28;20105;-71
2021/08/17 23:51:29;;;;;;;46.97;29.63;;;23.10;85.40;;;;;;5056056;28;20535;-71
2021/08/17 23:53:54;;;;;;;43.22;28.83;;;23.10;85.70;;;;;;5042783;28;20037;-71
2021/08/17 23:56:20;;;;;;;47.08;30.98;;;23.00;86.00;;;;;;5036475;28;20029;-71
2021/08/17 23:58:46;;;;;;;47.00;30.35;;;23.00;86.20;;;;;;5036489;28;20025;-71
